Dayton, OH

5:34 PM EDT on October 31, 2014 (GMT -0400)
Sinclair Dayton Campus | Change Station
CLOSE
Current Station
Personal Weather Station
Location: Dayton, OH
Elevation: 780 ft
Nearby Weather Stations

Elev 780 ft 39.76 °N, 84.20 °W | Updated 6 seconds ago

Rain
Rain
42.5 °F
Feels Like 42 °F
N
2.0
Wind Variable Wind from NW
Gusts 4.0 mph

Today
High -- | Low -- °F
--% Chance of Precip.
Yesterday
High -- | Low -- °F
Precip. -- in
8:04 AM 6:35 PM
First Quarter, 59% visible
Pressure 29.91 in
Visibility 10.0 miles
Clouds Few 800 ft
Scattered Clouds 1600 ft
Mostly Cloudy 4600 ft
Mostly Cloudy 6000 ft
Windchill 42 °F
Dew Point 39 °F
Humidity 87%
Rainfall 0.15 in
Snow Depth Not available.
UV 0.0 out of 12
Pollen .10 out of 12
Air Quality Not available.
Flu Activity Not available.
SPECI KFFO 312119Z 33007KT 10SM -DZ FEW008 SCT016 BKN046 BKN060 05/03 A2991 RMK AO2A

More Conditions Fewer Conditions

Pressure 29.91 in
Visibility 10.0 miles
Clouds Few 800 ft
Scattered Clouds 1600 ft
Mostly Cloudy 4600 ft
Mostly Cloudy 6000 ft
Windchill 42 °F
Dew Point 39 °F
Humidity 87%
Rainfall 0.15 in
Snow Depth Not available.
UV 0.0 out of 12
Pollen .10 out of 12
Air Quality Not available.
Flu Activity Not available.
SPECI KFFO 312119Z 33007KT 10SM -DZ FEW008 SCT016 BKN046 BKN060 05/03 A2991 RMK AO2A

More Conditions Fewer Conditions

10-Day Weather Forecast

Almanac

Astronomy

Oct. 31, 2014 Rise Set
Actual Time
Civil Twilight
Nautical Twilight
Astronomical Twilight
Moon
Length of Visible Light
Length of Day
Tomorrow will be .
, % of the Moon is Illuminated

Today's Extremes

State Highs State Lows

Community

WunderPhotos

Upload Photos

1,766,738 photos uploaded!

WunderBlogs® & News

Nearby

Air Quality

  Air Quality AQ Index Pollutant
Not available.

Snow Depth

Station Depth Elevation

Earthquake Activity

City Distance Mag. Time & Date
Minimum magnitude displayed is 2.5.

Coastal Water Temperatures

Place Temperature

Nearby Weather Stations